createdAt,value
2022-12-11T00:01:11.695Z,19.90
2022-12-11T00:03:38.443Z,20.70
2022-12-11T00:06:07.243Z,20.70
2022-12-11T00:08:33.947Z,21.30
2022-12-11T00:11:00.659Z,20.30
2022-12-11T00:13:27.447Z,23.70
2022-12-11T00:15:54.071Z,27.10
2022-12-11T00:18:20.853Z,27.30
2022-12-11T00:20:47.457Z,26.40
2022-12-11T00:23:14.143Z,25.00
2022-12-11T00:25:44.272Z,25.70
2022-12-11T00:28:12.123Z,25.60
2022-12-11T00:30:40.847Z,25.90
2022-12-11T00:33:07.488Z,26.40
2022-12-11T00:35:34.160Z,25.60
2022-12-11T00:38:00.792Z,30.80
2022-12-11T00:40:27.460Z,33.30
2022-12-11T00:42:54.134Z,26.30
2022-12-11T00:45:20.787Z,24.30
2022-12-11T00:47:47.410Z,23.50
2022-12-11T00:50:14.063Z,23.50
2022-12-11T00:52:40.716Z,24.00
2022-12-11T00:55:07.760Z,24.30
2022-12-11T00:57:35.460Z,31.10
2022-12-11T01:00:02.135Z,42.60
2022-12-11T01:02:28.784Z,38.00
2022-12-11T01:04:56.170Z,34.30
2022-12-11T01:07:22.867Z,30.60
2022-12-11T01:10:08.122Z,29.70
2022-12-11T01:12:35.037Z,28.40
2022-12-11T01:15:01.713Z,28.70
2022-12-11T01:17:28.331Z,30.60
2022-12-11T01:19:55.136Z,35.60
2022-12-11T01:22:21.931Z,25.00
2022-12-11T01:24:48.715Z,24.10
2022-12-11T01:27:15.615Z,23.90
2022-12-11T01:29:42.266Z,25.90
2022-12-11T01:32:08.904Z,24.50
2022-12-11T01:34:35.733Z,26.60
2022-12-11T01:37:02.392Z,26.90
2022-12-11T01:39:29.028Z,25.90
2022-12-11T01:41:59.344Z,23.80
2022-12-11T01:44:25.972Z,22.80
2022-12-11T01:46:53.813Z,24.40
2022-12-11T01:49:21.739Z,25.80
2022-12-11T01:51:59.374Z,24.90
2022-12-11T01:54:26.266Z,22.40
2022-12-11T01:56:53.544Z,22.60
2022-12-11T01:59:22.595Z,22.90
2022-12-11T02:01:52.554Z,20.90
2022-12-11T02:04:19.327Z,21.90
2022-12-11T02:06:47.740Z,20.50
2022-12-11T02:09:16.265Z,20.90
2022-12-11T02:11:48.994Z,22.10
2022-12-11T02:14:28.181Z,21.30
2022-12-11T02:17:02.175Z,21.00
2022-12-11T02:20:06.794Z,21.60
2022-12-11T02:24:18.530Z,22.00
2022-12-11T02:26:56.512Z,22.70
2022-12-11T02:29:34.938Z,23.10
2022-12-11T02:32:04.821Z,23.00
2022-12-11T02:34:43.412Z,18.40
2022-12-11T02:37:13.444Z,23.00
2022-12-11T02:39:40.651Z,22.10
2022-12-11T02:42:07.279Z,22.00
2022-12-11T02:44:34.068Z,23.60
2022-12-11T02:47:01.008Z,23.10
2022-12-11T02:49:27.667Z,22.50
2022-12-11T02:51:54.805Z,22.10
2022-12-11T02:54:25.422Z,18.10
2022-12-11T02:57:00.636Z,15.20
2022-12-11T02:59:31.119Z,14.50
2022-12-11T03:01:58.307Z,17.00
2022-12-11T03:04:25.063Z,13.70
2022-12-11T03:06:54.733Z,13.90
2022-12-11T03:09:21.486Z,14.00
2022-12-11T03:11:48.187Z,14.70
2022-12-11T03:14:14.902Z,14.30
2022-12-11T03:17:00.136Z,14.50
2022-12-11T03:19:45.749Z,13.60
2022-12-11T03:22:16.292Z,13.50
2022-12-11T03:24:48.813Z,13.90
2022-12-11T03:27:37.083Z,13.70
2022-12-11T03:30:25.968Z,13.70
2022-12-11T03:32:58.181Z,13.00
2022-12-11T03:35:41.792Z,13.60
2022-12-11T03:38:14.660Z,12.00
2022-12-11T03:40:42.752Z,11.90
2022-12-11T03:43:10.253Z,11.80
2022-12-11T03:45:37.857Z,10.80
2022-12-11T03:48:05.597Z,11.60
2022-12-11T03:50:33.370Z,10.90
2022-12-11T03:53:01.079Z,11.70
2022-12-11T03:55:30.620Z,12.00
2022-12-11T03:57:58.345Z,12.50
2022-12-11T04:00:26.315Z,13.00
2022-12-11T04:03:13.925Z,12.20
2022-12-11T04:06:01.873Z,12.30
2022-12-11T04:08:29.591Z,12.00
2022-12-11T04:11:15.654Z,11.70
2022-12-11T04:13:43.279Z,10.30
2022-12-11T04:16:10.672Z,10.60
2022-12-11T04:18:56.529Z,9.80
2022-12-11T04:21:42.563Z,10.80
2022-12-11T04:24:15.946Z,12.40
2022-12-11T04:26:47.001Z,12.20
2022-12-11T04:29:15.547Z,12.30
2022-12-11T04:31:43.044Z,11.90
2022-12-11T04:34:10.917Z,12.30
2022-12-11T04:36:38.453Z,11.40
2022-12-11T04:39:06.167Z,11.80
2022-12-11T04:41:33.885Z,11.00
2022-12-11T04:44:01.289Z,11.10
2022-12-11T04:46:28.103Z,10.40
2022-12-11T04:48:57.707Z,11.40
2022-12-11T04:51:24.901Z,11.10
2022-12-11T04:53:51.568Z,11.80
2022-12-11T04:56:18.346Z,11.10
2022-12-11T04:58:45.141Z,11.10
2022-12-11T05:01:13.842Z,10.90
2022-12-11T05:03:40.723Z,11.30
2022-12-11T05:06:08.134Z,11.10
2022-12-11T05:08:35.573Z,11.10
2022-12-11T05:11:05.710Z,10.40
2022-12-11T05:13:32.508Z,10.40
2022-12-11T05:15:59.377Z,10.30
2022-12-11T05:18:26.124Z,9.70
2022-12-11T05:21:00.182Z,10.80
2022-12-11T05:23:26.987Z,10.60
2022-12-11T05:25:54.877Z,10.70
2022-12-11T05:28:22.019Z,11.00
2022-12-11T05:30:48.878Z,10.80
2022-12-11T05:33:15.498Z,11.50
2022-12-11T05:35:47.789Z,11.20
2022-12-11T05:38:14.724Z,11.80
2022-12-11T05:40:41.541Z,11.90
2022-12-11T05:43:08.648Z,11.80
2022-12-11T05:45:35.393Z,12.00
2022-12-11T05:48:02.099Z,11.40
2022-12-11T05:50:28.735Z,11.40
2022-12-11T05:52:55.483Z,10.70
2022-12-11T05:55:22.101Z,10.80
2022-12-11T05:57:48.930Z,10.10
2022-12-11T06:00:15.580Z,10.70
2022-12-11T06:02:42.339Z,10.90
2022-12-11T06:05:09.515Z,10.40
2022-12-11T06:07:36.325Z,10.70
2022-12-11T06:10:03.018Z,10.30
2022-12-11T06:12:29.949Z,9.70
2022-12-11T06:14:56.676Z,10.20
2022-12-11T06:17:23.306Z,9.30
2022-12-11T06:19:49.921Z,9.50
2022-12-11T06:22:16.595Z,10.00
2022-12-11T06:24:43.244Z,9.70
2022-12-11T06:27:10.243Z,9.70
2022-12-11T06:29:36.879Z,9.70
2022-12-11T06:32:03.671Z,9.40
2022-12-11T06:34:30.346Z,9.80
2022-12-11T06:36:56.974Z,10.50
2022-12-11T06:39:23.580Z,10.10
2022-12-11T06:41:50.218Z,10.60
2022-12-11T06:44:16.855Z,11.00
2022-12-11T06:46:43.479Z,10.70
2022-12-11T06:49:10.100Z,10.20
2022-12-11T06:51:36.900Z,10.40
2022-12-11T06:54:03.698Z,10.30
2022-12-11T06:56:30.512Z,10.70
2022-12-11T06:58:57.211Z,9.90
2022-12-11T07:01:25.797Z,10.80
2022-12-11T07:03:53.855Z,10.80
2022-12-11T07:06:20.579Z,10.20
2022-12-11T07:08:47.246Z,9.80
2022-12-11T07:11:15.312Z,9.60
2022-12-11T07:13:42.333Z,9.10
2022-12-11T07:16:11.036Z,8.80
2022-12-11T07:18:38.922Z,7.60
2022-12-11T07:21:06.525Z,7.90
2022-12-11T07:23:34.035Z,8.00
2022-12-11T07:26:07.411Z,8.40
2022-12-11T07:28:34.511Z,8.20
2022-12-11T07:31:08.183Z,8.10
2022-12-11T07:33:34.915Z,7.10
2022-12-11T07:36:05.875Z,7.80
2022-12-11T07:38:32.638Z,7.50
2022-12-11T07:41:03.520Z,7.80
2022-12-11T07:43:30.161Z,7.30
2022-12-11T07:46:03.941Z,7.60
2022-12-11T07:51:27.981Z,6.90
2022-12-11T07:53:59.604Z,7.20
2022-12-11T07:56:26.783Z,6.60
2022-12-11T07:58:53.797Z,7.10
2022-12-11T08:01:26.073Z,7.10
2022-12-11T08:03:53.298Z,7.90
2022-12-11T08:06:21.459Z,6.50
2022-12-11T08:08:48.146Z,7.10
2022-12-11T08:11:14.894Z,7.50
2022-12-11T08:13:42.223Z,7.40
2022-12-11T08:16:10.747Z,7.40
2022-12-11T08:18:37.729Z,8.00
2022-12-11T08:21:06.303Z,7.60
2022-12-11T08:23:32.911Z,8.30
2022-12-11T08:25:59.687Z,7.80
2022-12-11T08:28:27.395Z,7.20
2022-12-11T08:30:54.167Z,7.90
2022-12-11T08:33:20.886Z,7.30
2022-12-11T08:35:47.655Z,7.30
2022-12-11T08:38:14.399Z,7.50
2022-12-11T08:40:41.096Z,7.50
2022-12-11T08:43:07.957Z,8.20
2022-12-11T08:45:34.606Z,7.90
2022-12-11T08:48:01.249Z,7.30
2022-12-11T08:50:27.923Z,8.10
2022-12-11T08:52:54.611Z,8.10
2022-12-11T08:55:22.051Z,8.00
2022-12-11T08:57:48.743Z,8.30
2022-12-11T09:00:15.932Z,8.40
2022-12-11T09:02:42.679Z,9.30
2022-12-11T09:05:10.177Z,9.90
2022-12-11T09:07:37.622Z,10.10
2022-12-11T09:10:05.791Z,10.20
2022-12-11T09:12:33.574Z,9.40
2022-12-11T09:15:00.261Z,9.70
2022-12-11T09:17:26.962Z,10.00
2022-12-11T09:19:53.609Z,10.00
2022-12-11T09:22:20.244Z,9.70
2022-12-11T09:24:47.164Z,9.70
2022-12-11T09:27:13.813Z,9.60
2022-12-11T09:29:40.610Z,8.90
2022-12-11T09:32:07.387Z,9.30
2022-12-11T09:34:34.088Z,8.90
2022-12-11T09:37:00.844Z,8.00
2022-12-11T09:39:27.515Z,8.60
2022-12-11T09:42:21.202Z,9.10
2022-12-11T09:44:54.865Z,9.30
2022-12-11T09:49:59.152Z,9.60
2022-12-11T09:52:32.159Z,9.60
2022-12-11T09:55:13.663Z,9.90
2022-12-11T09:57:40.382Z,9.80
2022-12-11T10:00:26.065Z,9.50
2022-12-11T10:03:20.091Z,9.40
2022-12-11T10:06:08.683Z,9.50
2022-12-11T10:08:38.463Z,9.60
2022-12-11T10:11:42.214Z,10.00
2022-12-11T10:14:13.158Z,9.80
2022-12-11T10:16:48.489Z,8.40
2022-12-11T10:19:19.220Z,9.80
2022-12-11T10:21:45.860Z,8.90
2022-12-11T10:25:07.549Z,8.90
2022-12-11T10:27:21.847Z,10.00
2022-12-11T10:29:52.999Z,8.70
2022-12-11T10:32:24.721Z,8.40
2022-12-11T10:34:57.367Z,8.10
2022-12-11T10:37:24.363Z,8.20
2022-12-11T10:39:51.473Z,9.70
2022-12-11T10:42:22.423Z,8.20
2022-12-11T10:45:15.514Z,8.50
2022-12-11T10:47:42.126Z,8.40
2022-12-11T10:50:22.501Z,8.00
2022-12-11T10:52:49.169Z,9.60
2022-12-11T10:55:27.798Z,10.10
2022-12-11T10:58:02.635Z,9.90
2022-12-11T11:00:39.809Z,9.20
2022-12-11T11:03:23.889Z,10.10
2022-12-11T11:05:50.811Z,9.30
2022-12-11T11:08:21.591Z,10.40
2022-12-11T11:10:55.706Z,8.60
2022-12-11T11:13:23.549Z,9.90
2022-12-11T11:15:51.350Z,10.60
2022-12-11T11:18:27.797Z,11.60
2022-12-11T11:20:54.476Z,13.30
2022-12-11T11:23:23.992Z,10.10
2022-12-11T11:26:01.609Z,10.70
2022-12-11T11:28:40.643Z,10.90
2022-12-11T11:31:09.319Z,8.00
2022-12-11T11:33:37.019Z,7.30
2022-12-11T11:36:06.036Z,7.30
2022-12-11T11:38:44.941Z,6.90
2022-12-11T11:41:21.164Z,6.80
2022-12-11T11:43:59.230Z,5.80
2022-12-11T11:46:46.530Z,5.70
2022-12-11T11:49:15.500Z,5.90
2022-12-11T11:51:51.834Z,5.70
2022-12-11T11:54:36.100Z,4.90
2022-12-11T11:57:13.980Z,4.40
2022-12-11T11:59:42.967Z,4.30
2022-12-11T12:02:14.728Z,4.20
2022-12-11T12:04:41.372Z,4.00
2022-12-11T12:07:20.665Z,4.30
2022-12-11T12:10:12.476Z,3.90
2022-12-11T12:13:01.757Z,4.00
2022-12-11T12:15:38.883Z,3.90
2022-12-11T12:18:43.314Z,3.80
2022-12-11T12:21:19.695Z,3.70
2022-12-11T12:23:58.345Z,3.40
2022-12-11T12:26:29.924Z,3.80
2022-12-11T12:29:20.295Z,3.40
2022-12-11T12:31:53.759Z,3.10
2022-12-11T12:34:32.518Z,3.40
2022-12-11T12:37:49.383Z,3.20
2022-12-11T12:40:34.260Z,3.20
2022-12-11T12:43:11.298Z,3.20
2022-12-11T12:46:00.411Z,2.90
2022-12-11T12:48:27.306Z,2.90
2022-12-11T12:50:53.879Z,2.90
2022-12-11T12:53:23.185Z,2.70
2022-12-11T12:55:49.853Z,3.20
2022-12-11T12:58:31.739Z,2.90
2022-12-11T13:01:19.429Z,2.80
2022-12-11T13:04:06.353Z,2.70
2022-12-11T13:06:36.946Z,2.80
2022-12-11T13:09:17.837Z,2.80
2022-12-11T13:11:45.273Z,2.80
2022-12-11T13:14:11.936Z,2.70
2022-12-11T13:16:42.609Z,2.80
2022-12-11T13:19:27.779Z,2.60
2022-12-11T13:21:58.347Z,2.60
2022-12-11T13:24:26.944Z,2.70
2022-12-11T13:26:53.651Z,2.90
2022-12-11T13:29:35.824Z,2.80
2022-12-11T13:32:08.025Z,2.70
2022-12-11T13:34:39.616Z,2.60
2022-12-11T13:37:06.711Z,2.70
2022-12-11T13:39:35.075Z,2.90
2022-12-11T13:42:05.903Z,2.90
2022-12-11T13:44:39.435Z,2.70
2022-12-11T13:47:07.412Z,2.50
2022-12-11T13:49:38.731Z,2.60
2022-12-11T13:52:05.749Z,2.70
2022-12-11T13:54:34.078Z,2.70
2022-12-11T13:57:22.520Z,2.60
2022-12-11T13:59:53.469Z,2.50
2022-12-11T14:02:34.554Z,2.50
2022-12-11T14:05:03.632Z,2.60
2022-12-11T14:07:38.396Z,2.50
2022-12-11T14:10:19.457Z,2.50
2022-12-11T14:13:05.894Z,2.50
2022-12-11T14:15:33.801Z,2.50
2022-12-11T14:18:00.532Z,2.30
2022-12-11T14:20:29.027Z,2.10
2022-12-11T14:23:13.775Z,2.50
2022-12-11T14:25:40.464Z,2.40
2022-12-11T14:28:15.729Z,2.60
2022-12-11T14:30:46.792Z,2.60
2022-12-11T14:33:13.433Z,2.50
2022-12-11T14:35:40.583Z,3.00
2022-12-11T14:38:35.234Z,2.20
2022-12-11T14:42:38.143Z,2.20
2022-12-11T14:45:08.459Z,2.40
2022-12-11T14:47:39.211Z,2.20
2022-12-11T14:50:08.398Z,2.40
2022-12-11T14:52:43.504Z,2.30
2022-12-11T14:55:16.570Z,2.10
2022-12-11T14:57:44.652Z,2.30
2022-12-11T15:00:30.398Z,2.20
2022-12-11T15:03:07.906Z,2.20
2022-12-11T15:05:40.512Z,2.40
2022-12-11T15:08:10.763Z,2.30
2022-12-11T15:10:42.028Z,2.10
2022-12-11T15:13:09.184Z,2.20
2022-12-11T15:15:43.165Z,2.30
2022-12-11T15:18:34.158Z,2.30
2022-12-11T15:21:07.035Z,2.10
2022-12-11T15:23:35.072Z,2.40
2022-12-11T15:26:01.876Z,2.30
2022-12-11T15:28:33.550Z,2.60
2022-12-11T15:31:04.090Z,2.50
2022-12-11T15:33:34.322Z,2.60
2022-12-11T15:36:05.367Z,2.50
2022-12-11T15:38:40.737Z,2.30
2022-12-11T15:41:15.438Z,2.40
2022-12-11T15:43:42.100Z,2.60
2022-12-11T15:46:08.917Z,2.30
2022-12-11T15:48:35.613Z,2.30
2022-12-11T15:51:03.729Z,2.50
2022-12-11T15:53:30.329Z,2.30
2022-12-11T15:55:57.515Z,2.40
2022-12-11T15:58:24.566Z,2.40
2022-12-11T16:00:51.235Z,2.20
2022-12-11T16:03:18.918Z,2.50
2022-12-11T16:05:45.603Z,2.40
2022-12-11T16:08:17.126Z,2.70
2022-12-11T16:10:44.289Z,2.40
2022-12-11T16:13:11.291Z,2.50
2022-12-11T16:15:38.975Z,2.30
2022-12-11T16:18:07.678Z,2.40
2022-12-11T16:20:35.300Z,3.00
2022-12-11T16:23:01.952Z,2.90
2022-12-11T16:25:28.721Z,3.30
2022-12-11T16:27:56.633Z,3.60
2022-12-11T16:30:23.652Z,3.70
2022-12-11T16:32:51.067Z,3.60
2022-12-11T16:35:18.723Z,3.70
2022-12-11T16:37:45.756Z,4.10
2022-12-11T16:40:12.500Z,4.90
2022-12-11T16:42:39.302Z,4.70
2022-12-11T16:45:08.579Z,4.70
2022-12-11T16:47:35.302Z,5.00
2022-12-11T16:50:02.140Z,4.90
2022-12-11T16:52:28.800Z,5.50
2022-12-11T16:54:56.778Z,5.30
2022-12-11T16:57:23.441Z,5.50
2022-12-11T16:59:50.856Z,5.70
2022-12-11T17:02:17.802Z,5.50
2022-12-11T17:04:47.030Z,5.60
2022-12-11T17:07:17.755Z,6.70
2022-12-11T17:09:44.451Z,5.60
2022-12-11T17:12:11.080Z,5.70
2022-12-11T17:14:37.830Z,5.70
2022-12-11T17:17:04.714Z,5.50
2022-12-11T17:19:31.403Z,5.80
2022-12-11T17:21:58.983Z,5.80
2022-12-11T17:24:25.661Z,5.70
2022-12-11T17:26:52.697Z,5.60
2022-12-11T17:29:19.969Z,5.60
2022-12-11T17:31:46.809Z,6.00
2022-12-11T17:34:13.431Z,6.10
2022-12-11T17:36:40.110Z,6.70
2022-12-11T17:39:06.665Z,6.00
2022-12-11T17:41:33.346Z,6.30
2022-12-11T17:44:00.112Z,6.50
2022-12-11T17:46:26.763Z,7.10
2022-12-11T17:48:53.468Z,7.70
2022-12-11T17:51:26.617Z,7.90
2022-12-11T17:53:55.269Z,8.00
2022-12-11T17:56:22.160Z,8.10
2022-12-11T17:58:48.869Z,8.40
2022-12-11T18:01:15.530Z,8.20
2022-12-11T18:03:42.382Z,8.80
2022-12-11T18:06:11.525Z,7.90
2022-12-11T18:08:38.351Z,7.50
2022-12-11T18:11:31.822Z,8.00
2022-12-11T18:13:58.525Z,7.80
2022-12-11T18:16:27.819Z,7.90
2022-12-11T18:18:54.604Z,7.70
2022-12-11T18:21:23.220Z,8.00
2022-12-11T18:23:50.328Z,7.60
2022-12-11T18:26:18.337Z,7.70
2022-12-11T18:28:45.202Z,7.40
2022-12-11T18:31:12.158Z,7.30
2022-12-11T18:33:39.469Z,7.40
2022-12-11T18:36:06.598Z,7.20
2022-12-11T18:38:33.609Z,7.20
2022-12-11T18:41:05.666Z,7.80
2022-12-11T18:43:32.308Z,7.10
2022-12-11T18:45:59.002Z,7.70
2022-12-11T18:48:25.664Z,8.10
2022-12-11T18:50:52.359Z,7.50
2022-12-11T18:53:19.570Z,3.10
2022-12-11T18:55:47.546Z,2.10
2022-12-11T18:58:15.395Z,2.00
2022-12-11T19:00:42.373Z,2.30
2022-12-11T19:03:09.059Z,3.30
2022-12-11T19:05:40.286Z,3.30
2022-12-11T19:08:06.941Z,2.30
2022-12-11T19:10:33.585Z,2.60
2022-12-11T19:13:00.229Z,2.10
2022-12-11T19:15:27.753Z,2.10
2022-12-11T19:17:54.414Z,1.80
2022-12-11T19:23:07.905Z,2.30
2022-12-11T19:25:34.642Z,3.20
2022-12-11T19:28:01.399Z,2.70
2022-12-11T19:30:28.072Z,3.10
2022-12-11T19:32:54.970Z,4.00
2022-12-11T19:35:21.597Z,3.20
2022-12-11T19:37:48.239Z,2.70
2022-12-11T19:40:15.198Z,3.00
2022-12-11T19:42:42.428Z,2.70
2022-12-11T19:45:10.721Z,2.80
2022-12-11T19:47:37.688Z,2.90
2022-12-11T19:50:04.664Z,3.30
2022-12-11T19:52:31.333Z,3.10
2022-12-11T19:55:01.781Z,3.80
2022-12-11T19:57:28.458Z,3.60
2022-12-11T19:59:57.357Z,3.50
2022-12-11T20:02:24.304Z,3.50
2022-12-11T20:04:50.953Z,4.20
2022-12-11T20:07:17.844Z,4.40
2022-12-11T20:09:44.525Z,4.60
2022-12-11T20:12:11.166Z,3.80
2022-12-11T20:14:38.010Z,3.90
2022-12-11T20:17:14.208Z,3.60
2022-12-11T20:19:41.434Z,4.30
2022-12-11T20:22:09.075Z,3.40
2022-12-11T20:24:35.885Z,3.70
2022-12-11T20:27:02.579Z,3.40
2022-12-11T20:29:29.243Z,3.10
2022-12-11T20:31:55.899Z,3.80
2022-12-11T20:34:22.596Z,3.90
2022-12-11T20:36:49.415Z,4.00
2022-12-11T20:39:16.149Z,4.10
2022-12-11T20:41:42.890Z,3.90
2022-12-11T20:44:09.650Z,3.80
2022-12-11T20:46:36.393Z,3.80
2022-12-11T20:49:03.264Z,3.50
2022-12-11T20:51:30.356Z,3.30
2022-12-11T20:53:59.951Z,3.70
2022-12-11T20:56:30.159Z,3.40
2022-12-11T20:58:57.368Z,3.70
2022-12-11T21:01:25.023Z,4.00
2022-12-11T21:03:53.006Z,3.80
2022-12-11T21:06:26.699Z,3.00
2022-12-11T21:11:20.120Z,3.20
2022-12-11T21:13:50.458Z,3.30
2022-12-11T21:16:17.840Z,3.00
2022-12-11T21:18:46.417Z,2.90
2022-12-11T21:21:13.139Z,3.10
2022-12-11T21:23:39.785Z,3.20
2022-12-11T21:26:06.506Z,2.90
2022-12-11T21:28:35.443Z,2.90
2022-12-11T21:31:04.278Z,2.90
2022-12-11T21:33:30.980Z,2.40
2022-12-11T21:35:57.799Z,2.80
2022-12-11T21:38:24.635Z,2.50
2022-12-11T21:40:51.754Z,2.50
2022-12-11T21:43:18.576Z,2.40
2022-12-11T21:46:01.017Z,2.50
2022-12-11T21:48:28.613Z,2.20
2022-12-11T21:50:55.282Z,2.40
2022-12-11T21:53:21.913Z,2.20
2022-12-11T21:55:48.579Z,2.10
2022-12-11T21:58:15.712Z,2.10
2022-12-11T22:00:42.423Z,2.10
2022-12-11T22:03:09.203Z,2.00
2022-12-11T22:05:35.890Z,2.00
2022-12-11T22:08:02.737Z,2.00
2022-12-11T22:10:29.493Z,2.10
2022-12-11T22:12:56.200Z,2.00
2022-12-11T22:15:22.882Z,2.00
2022-12-11T22:17:49.595Z,1.90
2022-12-11T22:20:16.275Z,1.90
2022-12-11T22:22:42.954Z,2.00
2022-12-11T22:25:10.086Z,2.30
2022-12-11T22:27:37.041Z,2.20
2022-12-11T22:30:04.341Z,2.40
2022-12-11T22:32:30.974Z,2.30
2022-12-11T22:34:57.917Z,2.00
2022-12-11T22:37:24.666Z,2.10
2022-12-11T22:39:51.425Z,1.90
2022-12-11T22:42:18.173Z,1.90
2022-12-11T22:44:44.783Z,2.30
2022-12-11T22:47:11.534Z,2.20
2022-12-11T22:49:38.183Z,2.60
2022-12-11T22:52:04.931Z,2.10
2022-12-11T22:54:31.576Z,2.10
2022-12-11T22:56:58.180Z,2.60
2022-12-11T22:59:24.864Z,2.50
2022-12-11T23:01:51.533Z,2.20
2022-12-11T23:04:18.171Z,2.30
2022-12-11T23:06:44.773Z,2.30
2022-12-11T23:09:11.853Z,2.10
2022-12-11T23:11:38.938Z,2.20
2022-12-11T23:14:06.683Z,2.40
2022-12-11T23:16:33.797Z,2.60
2022-12-11T23:19:00.733Z,2.90
2022-12-11T23:21:27.667Z,3.00
2022-12-11T23:23:54.804Z,3.00
2022-12-11T23:26:22.104Z,3.70
2022-12-11T23:28:49.207Z,3.50
2022-12-11T23:31:16.042Z,3.60
2022-12-11T23:33:42.786Z,3.60
2022-12-11T23:36:09.718Z,3.40
2022-12-11T23:38:36.515Z,3.40
2022-12-11T23:41:03.564Z,3.40
2022-12-11T23:43:30.196Z,3.60
2022-12-11T23:45:57.743Z,3.60
2022-12-11T23:48:24.444Z,3.70
2022-12-11T23:50:51.154Z,3.80
2022-12-11T23:53:17.774Z,3.50
2022-12-11T23:55:44.675Z,3.20
2022-12-11T23:58:11.820Z,3.40
